Fleron, Belgium
Current Conditions -  °F | °C
As of 1:20 AM on Sunday 21 Dec 2014 (Local Time) from EBLG Reporting Station
Few Clouds Few Clouds  
Wind Chill: 30°   Ceiling: Unl
Heat Index: 37°   Visibility: 6mi
Dew Point: 36°   Wind: 10mph
Humidity: 93%   Direction: 240°WSW
Pressure: 30.39"   Gusts: NA
Location:  50.62°N, 5.68°E
Report Text: EBLG 210020Z 24009KT 9999 FEW028 03/02 Q1029 NOSIG
Loading
Personal Weather Stations






























Interactive Weather Map New forecast layout! Learn more

10-Day Weather Forecast

Advertisements
Track Severe Weather on mobile